Time;durP1;ratioP1;P1;durP2;ratioP2;P2;SDS_P1;SDS_P2;PMS_P1;PMS_P2;Temp;Humidity;BMP_temperature;BMP_pressure;BME280_temperature;BME280_humidity;BME280_pressure;Samples;Min_cycle;Max_cycle;Signal;HPM_P1;HPM_P2
2023/05/04 00:02:20;;;;;;;18.17;15.63;;;;;;;;;;5074157;28;20175;-68
2023/05/04 00:04:46;;;;;;;20.33;15.75;;;;;;;;;;5069656;28;20052;-68
2023/05/04 00:07:13;;;;;;;18.35;14.65;;;;;;;;;;5074414;28;20049;-69
2023/05/04 00:09:39;;;;;;;19.55;16.17;;;;;;;;;;5066567;28;20059;-68
2023/05/04 00:12:06;;;;;;;19.75;15.07;;;;;;;;;;5074905;28;20048;-68
2023/05/04 00:14:33;;;;;;;17.35;15.38;;;;;;;;;;5064857;28;20135;-69
2023/05/04 00:17:00;;;;;;;18.58;15.45;;;;;;;;;;5074478;28;20045;-69
2023/05/04 00:19:27;;;;;;;19.93;15.77;;;;;;;;;;5074523;28;20048;-69
2023/05/04 00:21:53;;;;;;;20.92;15.15;;;;;;;;;;5074455;28;20285;-68
2023/05/04 00:24:19;;;;;;;21.38;14.90;;;;;;;;;;5074428;28;20044;-68
2023/05/04 00:26:46;;;;;;;19.25;16.15;;;;;;;;;;5074693;28;20158;-68
2023/05/04 00:29:12;;;;;;;20.77;15.95;;;;;;;;;;5074540;28;20067;-68
2023/05/04 00:31:38;;;;;;;19.45;15.27;;;;;;;;;;5074684;28;20049;-68
2023/05/04 00:34:05;;;;;;;19.95;14.90;;;;;;;;;;5073256;28;20057;-68
2023/05/04 00:36:31;;;;;;;21.77;15.93;;;;;;;;;;5074582;28;20123;-69
2023/05/04 00:38:58;;;;;;;18.45;16.17;;;;;;;;;;5074200;28;20563;-68
2023/05/04 00:41:24;;;;;;;20.40;16.00;;;;;;;;;;5074366;28;20487;-68
2023/05/04 00:43:51;;;;;;;19.50;15.93;;;;;;;;;;5074148;28;20095;-68
2023/05/04 00:46:17;;;;;;;21.20;16.25;;;;;;;;;;5073964;28;20092;-68
2023/05/04 00:48:45;;;;;;;20.23;15.60;;;;;;;;;;5074015;28;20048;-68
2023/05/04 00:51:13;;;;;;;17.40;15.50;;;;;;;;;;5073957;28;20082;-68
2023/05/04 00:53:40;;;;;;;19.77;16.13;;;;;;;;;;5074228;28;20080;-68
2023/05/04 00:56:06;;;;;;;19.75;16.05;;;;;;;;;;5073838;28;20539;-68
2023/05/04 00:58:33;;;;;;;19.65;16.38;;;;;;;;;;5073777;28;20090;-68
2023/05/04 01:01:01;;;;;;;21.30;16.70;;;;;;;;;;5073887;28;20056;-68
2023/05/04 01:03:27;;;;;;;20.52;16.83;;;;;;;;;;5073968;28;20120;-68
2023/05/04 01:06:05;;;;;;;19.40;16.77;;;;;;;;;;5073799;28;20515;-68
2023/05/04 01:08:37;;;;;;;21.08;16.73;;;;;;;;;;5073671;28;20087;-68
2023/05/04 01:11:09;;;;;;;22.98;16.33;;;;;;;;;;5073083;28;20059;-68
2023/05/04 01:13:36;;;;;;;23.48;16.85;;;;;;;;;;5072733;28;20555;-68
2023/05/04 01:16:03;;;;;;;21.52;17.98;;;;;;;;;;5073246;28;20403;-68
2023/05/04 01:18:30;;;;;;;21.02;17.45;;;;;;;;;;5074296;28;20106;-68
2023/05/04 01:20:57;;;;;;;20.45;16.50;;;;;;;;;;5073303;28;20495;-68
2023/05/04 01:23:23;;;;;;;23.58;17.58;;;;;;;;;;5073326;28;20059;-68
2023/05/04 01:25:57;;;;;;;22.95;17.38;;;;;;;;;;5073549;28;20131;-68
2023/05/04 01:28:29;;;;;;;22.83;17.27;;;;;;;;;;5073399;28;20048;-68
2023/05/04 01:30:58;;;;;;;24.45;17.75;;;;;;;;;;5073142;28;20423;-68
2023/05/04 01:33:25;;;;;;;21.25;16.58;;;;;;;;;;5073164;28;20049;-68
2023/05/04 01:35:51;;;;;;;23.23;17.63;;;;;;;;;;5073205;28;20044;-68
2023/05/04 01:38:18;;;;;;;22.35;17.33;;;;;;;;;;5073130;28;20478;-68
2023/05/04 01:40:45;;;;;;;23.35;17.20;;;;;;;;;;5073315;28;20377;-68
2023/05/04 01:43:11;;;;;;;21.90;17.02;;;;;;;;;;5072936;28;20453;-68
2023/05/04 01:45:38;;;;;;;22.05;17.10;;;;;;;;;;5072933;28;20847;-68
2023/05/04 01:48:04;;;;;;;21.00;17.27;;;;;;;;;;5073156;28;20052;-68
2023/05/04 01:50:31;;;;;;;19.95;16.05;;;;;;;;;;5072841;28;20084;-68
2023/05/04 01:52:57;;;;;;;22.20;16.63;;;;;;;;;;5073011;28;20051;-68
2023/05/04 01:55:23;;;;;;;22.70;17.10;;;;;;;;;;5072719;28;20582;-68
2023/05/04 01:57:50;;;;;;;21.13;16.88;;;;;;;;;;5073031;28;20700;-68
2023/05/04 02:00:16;;;;;;;28.08;18.27;;;;;;;;;;5072593;28;20060;-68
2023/05/04 02:02:43;;;;;;;19.80;16.52;;;;;;;;;;5072775;28;20108;-68
2023/05/04 02:05:09;;;;;;;18.98;16.58;;;;;;;;;;5072498;28;20051;-68
2023/05/04 02:07:36;;;;;;;23.33;17.27;;;;;;;;;;5072831;28;20052;-68
2023/05/04 02:10:03;;;;;;;22.23;16.97;;;;;;;;;;5072410;28;20583;-68
2023/05/04 02:12:29;;;;;;;21.08;17.00;;;;;;;;;;5072616;28;20040;-68
2023/05/04 02:14:56;;;;;;;19.13;16.60;;;;;;;;;;5072368;28;20507;-68
2023/05/04 02:17:22;;;;;;;23.23;16.98;;;;;;;;;;5072532;28;20057;-68
2023/05/04 02:19:49;;;;;;;22.80;16.58;;;;;;;;;;5072608;28;20060;-68
2023/05/04 02:22:15;;;;;;;21.83;16.60;;;;;;;;;;5072005;28;20058;-68
2023/05/04 02:24:43;;;;;;;20.83;16.48;;;;;;;;;;5071000;28;20488;-68
2023/05/04 02:27:09;;;;;;;22.40;17.33;;;;;;;;;;5072357;28;20051;-68
2023/05/04 02:29:36;;;;;;;21.40;16.85;;;;;;;;;;5072066;28;20484;-68
2023/05/04 02:32:03;;;;;;;20.60;15.75;;;;;;;;;;5072369;28;20124;-68
2023/05/04 02:34:30;;;;;;;21.88;16.83;;;;;;;;;;5071977;28;20450;-68
2023/05/04 02:36:56;;;;;;;19.80;16.47;;;;;;;;;;5065743;28;20115;-68
2023/05/04 02:39:23;;;;;;;21.95;17.85;;;;;;;;;;5071864;28;20309;-68
2023/05/04 02:41:49;;;;;;;20.00;16.30;;;;;;;;;;5071846;28;20056;-68
2023/05/04 02:44:15;;;;;;;21.25;16.98;;;;;;;;;;5071883;28;20136;-68
2023/05/04 02:46:42;;;;;;;20.45;15.90;;;;;;;;;;5072046;28;20131;-68
2023/05/04 02:49:08;;;;;;;19.92;15.90;;;;;;;;;;5071790;28;20509;-68
2023/05/04 02:51:35;;;;;;;21.27;16.50;;;;;;;;;;5071677;28;20045;-68
2023/05/04 02:54:01;;;;;;;19.58;15.27;;;;;;;;;;5070581;28;20159;-68
2023/05/04 02:56:27;;;;;;;17.92;15.93;;;;;;;;;;5071899;28;20049;-68
2023/05/04 02:58:54;;;;;;;20.92;16.48;;;;;;;;;;5071781;28;20053;-68
2023/05/04 03:01:20;;;;;;;18.65;16.40;;;;;;;;;;5071719;28;20066;-68
2023/05/04 03:03:47;;;;;;;20.88;16.67;;;;;;;;;;5071962;28;20131;-68
2023/05/04 03:06:13;;;;;;;20.23;15.98;;;;;;;;;;5071902;28;20049;-68
2023/05/04 03:08:40;;;;;;;20.85;17.08;;;;;;;;;;5070325;28;20419;-68
2023/05/04 03:11:06;;;;;;;21.15;16.55;;;;;;;;;;5071396;28;20123;-68
2023/05/04 03:13:32;;;;;;;23.98;16.17;;;;;;;;;;5071814;28;20054;-68
2023/05/04 03:15:59;;;;;;;20.30;15.63;;;;;;;;;;5070300;28;20040;-69
2023/05/04 03:18:25;;;;;;;21.77;16.60;;;;;;;;;;5071558;28;20502;-68
2023/05/04 03:20:51;;;;;;;20.40;16.42;;;;;;;;;;5071305;28;20087;-68
2023/05/04 03:23:18;;;;;;;20.60;16.50;;;;;;;;;;5071430;28;20075;-68
2023/05/04 03:25:44;;;;;;;18.73;16.10;;;;;;;;;;5071854;28;20056;-68
2023/05/04 03:28:11;;;;;;;19.48;16.50;;;;;;;;;;5071420;28;20044;-68
2023/05/04 03:30:37;;;;;;;20.08;16.23;;;;;;;;;;5070175;28;20048;-68
2023/05/04 03:33:03;;;;;;;21.02;17.35;;;;;;;;;;5071421;28;20041;-68
2023/05/04 03:35:30;;;;;;;23.95;16.70;;;;;;;;;;5075596;28;20114;-68
2023/05/04 03:37:56;;;;;;;22.30;17.45;;;;;;;;;;5075307;28;20048;-68
2023/05/04 03:40:23;;;;;;;22.65;17.90;;;;;;;;;;5075600;28;20059;-68
2023/05/04 03:42:51;;;;;;;22.65;17.27;;;;;;;;;;5075523;28;20048;-68
2023/05/04 03:45:18;;;;;;;23.70;17.17;;;;;;;;;;5075353;28;20102;-68
2023/05/04 03:47:44;;;;;;;25.48;18.05;;;;;;;;;;5075251;28;20068;-68
2023/05/04 03:50:12;;;;;;;24.10;17.40;;;;;;;;;;5075076;28;20124;-68
2023/05/04 03:52:38;;;;;;;23.02;18.08;;;;;;;;;;5075107;28;20068;-68
2023/05/04 03:55:05;;;;;;;20.20;17.30;;;;;;;;;;5075291;28;20075;-68
2023/05/04 03:57:31;;;;;;;24.65;18.35;;;;;;;;;;5075406;28;20124;-68
2023/05/04 03:59:57;;;;;;;22.50;17.85;;;;;;;;;;5075086;28;20058;-68
2023/05/04 04:02:24;;;;;;;24.60;18.90;;;;;;;;;;5074992;28;20051;-68
2023/05/04 04:04:50;;;;;;;26.55;18.23;;;;;;;;;;5074863;28;20064;-68
2023/05/04 04:07:16;;;;;;;20.95;17.55;;;;;;;;;;5074968;28;20054;-68
2023/05/04 04:09:43;;;;;;;26.65;19.65;;;;;;;;;;5075089;28;20059;-68
2023/05/04 04:12:09;;;;;;;25.02;18.63;;;;;;;;;;5074993;28;20049;-68
2023/05/04 04:14:36;;;;;;;27.42;20.23;;;;;;;;;;5073878;28;20051;-68
2023/05/04 04:17:02;;;;;;;26.15;19.65;;;;;;;;;;5074697;28;20045;-68
2023/05/04 04:19:28;;;;;;;26.63;19.23;;;;;;;;;;5074642;28;20488;-68
2023/05/04 04:21:57;;;;;;;26.38;18.90;;;;;;;;;;5074539;28;20135;-68
2023/05/04 04:24:23;;;;;;;22.42;19.35;;;;;;;;;;5073485;28;20091;-68
2023/05/04 04:26:49;;;;;;;25.60;19.67;;;;;;;;;;5074671;28;20135;-68
2023/05/04 04:29:16;;;;;;;26.15;19.23;;;;;;;;;;5074499;28;20079;-68
2023/05/04 04:31:42;;;;;;;25.15;19.85;;;;;;;;;;5074674;28;20131;-67
2023/05/04 04:34:08;;;;;;;26.25;20.00;;;;;;;;;;5074796;28;20049;-68
2023/05/04 04:36:35;;;;;;;30.40;20.35;;;;;;;;;;5074336;28;20088;-68
2023/05/04 04:39:04;;;;;;;28.58;19.92;;;;;;;;;;5074258;28;20576;-68
2023/05/04 04:41:30;;;;;;;28.45;21.23;;;;;;;;;;5071191;28;20088;-68
2023/05/04 04:43:57;;;;;;;26.05;20.50;;;;;;;;;;5066080;28;20527;-68
2023/05/04 04:46:23;;;;;;;27.20;20.30;;;;;;;;;;5072683;28;20053;-68
2023/05/04 04:48:52;;;;;;;27.85;21.50;;;;;;;;;;5074387;28;20056;-68
2023/05/04 04:51:18;;;;;;;26.08;20.63;;;;;;;;;;5074220;28;20059;-68
2023/05/04 04:53:45;;;;;;;28.75;21.05;;;;;;;;;;5074156;28;20045;-68
2023/05/04 04:56:11;;;;;;;27.42;21.75;;;;;;;;;;5074237;28;20053;-68
2023/05/04 04:58:37;;;;;;;30.23;20.65;;;;;;;;;;5073919;28;20053;-68
2023/05/04 05:01:04;;;;;;;31.27;21.45;;;;;;;;;;5073818;28;20073;-68
2023/05/04 05:03:31;;;;;;;28.20;22.07;;;;;;;;;;5073841;28;20095;-68
2023/05/04 05:06:00;;;;;;;25.00;20.75;;;;;;;;;;5074055;28;20135;-68
2023/05/04 05:08:26;;;;;;;28.00;22.17;;;;;;;;;;5074105;28;20385;-68
2023/05/04 05:10:53;;;;;;;28.23;21.30;;;;;;;;;;5073950;28;20427;-68
2023/05/04 05:13:19;;;;;;;27.70;21.55;;;;;;;;;;5073989;28;20120;-68
2023/05/04 05:15:46;;;;;;;29.92;22.05;;;;;;;;;;5073574;28;20091;-68
2023/05/04 05:18:12;;;;;;;24.65;20.15;;;;;;;;;;5073637;28;20055;-68
2023/05/04 05:20:38;;;;;;;29.20;22.23;;;;;;;;;;5073490;28;20087;-68
2023/05/04 05:23:05;;;;;;;29.08;21.63;;;;;;;;;;5073664;28;20057;-68
2023/05/04 05:25:32;;;;;;;27.90;22.35;;;;;;;;;;5073540;28;20072;-68
2023/05/04 05:27:59;;;;;;;;;;;;;;;;;;5073919;28;20052;-68
2023/05/04 05:30:27;;;;;;;28.90;22.52;;;;;;;;;;5073605;28;19924;-67
2023/05/04 05:32:53;;;;;;;26.92;21.77;;;;;;;;;;5073517;28;20052;-68
2023/05/04 05:35:20;;;;;;;27.17;20.70;;;;;;;;;;5073490;28;20231;-68
2023/05/04 05:37:49;;;;;;;26.95;21.58;;;;;;;;;;5073132;28;20090;-68
2023/05/04 05:40:16;;;;;;;28.95;21.15;;;;;;;;;;5073343;28;20104;-68
2023/05/04 05:42:43;;;;;;;26.67;21.23;;;;;;;;;;5073115;28;20053;-68
2023/05/04 05:45:10;;;;;;;28.73;21.80;;;;;;;;;;5073001;28;20079;-68
2023/05/04 05:47:36;;;;;;;26.88;21.58;;;;;;;;;;5073026;28;20523;-68
2023/05/04 05:50:03;;;;;;;26.17;21.45;;;;;;;;;;5073046;28;20058;-68
2023/05/04 05:52:30;;;;;;;25.67;20.67;;;;;;;;;;5073263;28;20813;-68
2023/05/04 05:54:56;;;;;;;26.33;21.10;;;;;;;;;;5073038;28;20053;-68
2023/05/04 05:57:25;;;;;;;28.80;22.13;;;;;;;;;;5072392;28;20048;-68
2023/05/04 05:59:51;;;;;;;28.02;21.67;;;;;;;;;;5072653;28;20487;-68
2023/05/04 06:02:17;;;;;;;26.38;21.25;;;;;;;;;;5072817;28;20054;-68
2023/05/04 06:04:44;;;;;;;26.17;21.02;;;;;;;;;;5072539;28;20047;-68
2023/05/04 06:07:12;;;;;;;28.77;21.20;;;;;;;;;;5072513;28;20508;-68
2023/05/04 06:09:38;;;;;;;;;;;;;;;;;;5073601;28;20442;-68
2023/05/04 06:12:06;;;;;;;26.42;20.13;;;;;;;;;;5072338;28;20007;-68
2023/05/04 06:14:32;;;;;;;26.10;20.70;;;;;;;;;;5072840;28;20048;-66
2023/05/04 06:16:58;;;;;;;28.30;20.65;;;;;;;;;;5072819;28;20084;-67
2023/05/04 06:19:25;;;;;;;26.88;20.80;;;;;;;;;;5072708;28;20131;-66
2023/05/04 06:21:54;;;;;;;27.80;21.02;;;;;;;;;;5072535;28;20052;-66
2023/05/04 06:24:21;;;;;;;28.92;21.40;;;;;;;;;;5058275;28;20071;-67
2023/05/04 06:26:48;;;;;;;30.83;20.70;;;;;;;;;;5052501;28;20082;-67
2023/05/04 06:29:14;;;;;;;26.92;19.92;;;;;;;;;;5052489;28;20049;-67
2023/05/04 06:31:41;;;;;;;24.10;19.60;;;;;;;;;;5052492;28;20049;-67
2023/05/04 06:34:07;;;;;;;26.08;21.25;;;;;;;;;;5052314;28;20075;-67
2023/05/04 06:36:34;;;;;;;24.17;20.45;;;;;;;;;;5052159;28;20048;-67
2023/05/04 06:39:01;;;;;;;26.75;21.23;;;;;;;;;;5052351;28;20124;-67
2023/05/04 06:41:27;;;;;;;27.70;20.60;;;;;;;;;;5056882;28;20056;-67
2023/05/04 06:43:54;;;;;;;26.20;20.70;;;;;;;;;;5072377;28;20052;-67
2023/05/04 06:46:24;;;;;;;29.45;20.83;;;;;;;;;;5066828;28;20392;-67
2023/05/04 06:48:51;;;;;;;27.50;20.10;;;;;;;;;;5064203;28;20045;-67
2023/05/04 06:51:17;;;;;;;22.50;19.73;;;;;;;;;;5051552;28;20055;-66
2023/05/04 06:53:44;;;;;;;30.67;20.60;;;;;;;;;;5051938;28;20041;-67
2023/05/04 06:56:10;;;;;;;28.83;20.38;;;;;;;;;;5051523;28;20049;-67
2023/05/04 06:58:36;;;;;;;24.15;20.67;;;;;;;;;;5051000;28;20575;-67
2023/05/04 07:01:03;;;;;;;26.08;19.63;;;;;;;;;;5058080;28;20510;-67
2023/05/04 07:03:29;;;;;;;26.60;20.08;;;;;;;;;;5071416;28;20066;-67
2023/05/04 07:05:56;;;;;;;26.08;18.55;;;;;;;;;;5070873;28;20052;-67
2023/05/04 07:08:22;;;;;;;24.85;20.55;;;;;;;;;;5070937;28;20087;-67
2023/05/04 07:10:49;;;;;;;25.38;19.88;;;;;;;;;;5071549;28;20041;-67
2023/05/04 07:13:15;;;;;;;24.17;19.67;;;;;;;;;;5071598;28;20040;-67
2023/05/04 07:15:42;;;;;;;24.73;20.00;;;;;;;;;;5071355;28;20583;-67
2023/05/04 07:18:08;;;;;;;24.08;19.38;;;;;;;;;;5071562;28;20049;-67
2023/05/04 07:20:35;;;;;;;24.75;19.10;;;;;;;;;;5071548;28;20412;-67
2023/05/04 07:23:02;;;;;;;27.50;19.42;;;;;;;;;;5071383;28;20482;-67
2023/05/04 07:25:29;;;;;;;24.00;19.60;;;;;;;;;;5070540;28;20056;-67
2023/05/04 07:27:55;;;;;;;27.02;20.55;;;;;;;;;;5071376;28;20108;-67
2023/05/04 07:30:21;;;;;;;24.33;19.83;;;;;;;;;;5071297;28;20055;-67
2023/05/04 07:32:48;;;;;;;28.63;20.38;;;;;;;;;;5071589;28;20070;-67
2023/05/04 07:35:14;;;;;;;25.20;19.13;;;;;;;;;;5071499;28;20128;-67
2023/05/04 07:37:41;;;;;;;26.25;19.88;;;;;;;;;;5071428;28;20067;-67
2023/05/04 07:40:08;;;;;;;22.90;19.85;;;;;;;;;;5071217;28;20123;-67
2023/05/04 07:42:34;;;;;;;26.83;18.48;;;;;;;;;;5071476;28;20056;-67
2023/05/04 07:45:01;;;;;;;23.63;18.15;;;;;;;;;;5071471;28;20191;-67
2023/05/04 07:47:27;;;;;;;22.60;18.85;;;;;;;;;;5070367;28;20048;-67
2023/05/04 07:49:54;;;;;;;23.95;17.83;;;;;;;;;;5071158;28;20131;-67
2023/05/04 07:52:20;;;;;;;22.85;18.35;;;;;;;;;;5071055;28;20094;-67
2023/05/04 07:54:50;;;;;;;24.08;18.75;;;;;;;;;;5071297;28;20087;-67
2023/05/04 07:57:16;;;;;;;22.90;17.73;;;;;;;;;;5071256;28;20044;-67
2023/05/04 07:59:42;;;;;;;24.27;18.02;;;;;;;;;;5070976;28;20566;-67
2023/05/04 08:02:09;;;;;;;23.17;18.08;;;;;;;;;;5071340;28;20048;-67
2023/05/04 08:04:35;;;;;;;22.30;18.23;;;;;;;;;;5071016;28;20083;-67
2023/05/04 08:07:02;;;;;;;23.70;18.00;;;;;;;;;;5071179;28;20052;-67
2023/05/04 08:09:28;;;;;;;21.55;16.73;;;;;;;;;;5071038;28;20094;-67
2023/05/04 08:11:55;;;;;;;20.17;16.60;;;;;;;;;;5070877;28;20059;-67
2023/05/04 08:14:21;;;;;;;21.42;16.65;;;;;;;;;;5071024;28;20551;-67
2023/05/04 08:16:48;;;;;;;22.10;16.75;;;;;;;;;;5071271;28;20468;-67
2023/05/04 08:19:14;;;;;;;20.40;15.88;;;;;;;;;;5070947;28;20044;-67
2023/05/04 08:21:40;;;;;;;21.63;16.38;;;;;;;;;;5074948;28;20044;-67
2023/05/04 08:24:07;;;;;;;22.50;16.33;;;;;;;;;;5074835;28;20147;-67
2023/05/04 08:26:35;;;;;;;20.05;15.52;;;;;;;;;;5074765;28;20122;-67
2023/05/04 08:29:06;;;;;;;18.77;15.02;;;;;;;;;;5074411;28;20044;-67
2023/05/04 08:31:33;;;;;;;18.90;14.82;;;;;;;;;;5074432;28;20076;-67
2023/05/04 08:34:00;;;;;;;19.40;15.03;;;;;;;;;;5074876;28;20052;-67
2023/05/04 08:36:26;;;;;;;18.70;15.05;;;;;;;;;;5074644;28;20041;-67
2023/05/04 08:38:53;;;;;;;17.58;14.00;;;;;;;;;;5074635;28;20054;-67
2023/05/04 08:41:19;;;;;;;17.70;15.80;;;;;;;;;;5074545;28;20050;-67
2023/05/04 08:43:48;;;;;;;15.85;14.25;;;;;;;;;;5074582;28;20406;-67
2023/05/04 08:46:15;;;;;;;17.45;14.65;;;;;;;;;;5072937;28;20079;-67
2023/05/04 08:48:43;;;;;;;17.02;14.32;;;;;;;;;;5074168;28;20065;-67
2023/05/04 08:51:10;;;;;;;16.42;14.60;;;;;;;;;;5074012;28;20139;-67
2023/05/04 08:53:39;;;;;;;19.92;15.52;;;;;;;;;;5072957;28;20098;-67
2023/05/04 08:56:06;;;;;;;16.65;13.82;;;;;;;;;;5073161;28;20194;-67
2023/05/04 08:58:36;;;;;;;20.10;14.30;;;;;;;;;;5060016;28;20073;-67
2023/05/04 09:01:05;;;;;;;18.63;15.32;;;;;;;;;;5073947;28;20068;-67
2023/05/04 09:03:32;;;;;;;17.63;14.32;;;;;;;;;;5074269;28;20060;-67
2023/05/04 09:05:59;;;;;;;20.02;14.55;;;;;;;;;;5074062;28;20048;-67
2023/05/04 09:08:25;;;;;;;18.67;14.93;;;;;;;;;;5073907;28;20052;-67
2023/05/04 09:10:52;;;;;;;18.98;14.55;;;;;;;;;;5073712;28;20359;-67
2023/05/04 09:13:18;;;;;;;16.83;14.27;;;;;;;;;;5073824;28;20076;-67
2023/05/04 09:15:54;;;;;;;19.00;14.80;;;;;;;;;;5073649;28;20706;-67
2023/05/04 09:18:22;;;;;;;16.50;13.90;;;;;;;;;;5074031;28;20147;-67
2023/05/04 09:20:48;;;;;;;;;;;;;;;;;;5074023;28;20131;-67
2023/05/04 09:23:16;;;;;;;17.83;13.77;;;;;;;;;;5073586;28;20387;-67
2023/05/04 09:25:49;;;;;;;15.77;13.05;;;;;;;;;;5073830;28;20044;-68
2023/05/04 09:28:15;;;;;;;16.70;13.30;;;;;;;;;;5073715;28;20080;-68
2023/05/04 09:30:42;;;;;;;16.45;13.18;;;;;;;;;;5073291;28;20575;-68
2023/05/04 09:33:09;;;;;;;15.18;13.52;;;;;;;;;;5073058;28;20044;-68
2023/05/04 09:35:39;;;;;;;15.25;13.60;;;;;;;;;;5073641;28;20072;-68
2023/05/04 09:38:06;;;;;;;14.23;12.73;;;;;;;;;;5073523;28;20037;-68
2023/05/04 09:40:40;;;;;;;14.18;12.45;;;;;;;;;;5073494;28;20144;-68
2023/05/04 09:43:07;;;;;;;16.13;12.85;;;;;;;;;;5073453;28;20052;-68
2023/05/04 09:45:46;;;;;;;16.70;11.30;;;;;;;;;;5071824;28;20052;-68
2023/05/04 09:48:19;;;;;;;14.43;12.93;;;;;;;;;;5073130;28;20052;-68
2023/05/04 09:50:49;;;;;;;15.63;12.40;;;;;;;;;;5073352;28;20083;-68
2023/05/04 09:53:18;;;;;;;13.32;11.98;;;;;;;;;;5072986;28;20492;-68
2023/05/04 09:55:46;;;;;;;14.57;11.77;;;;;;;;;;5072929;28;20048;-68
2023/05/04 09:58:15;;;;;;;13.25;11.55;;;;;;;;;;5072992;28;20045;-68
2023/05/04 10:00:42;;;;;;;13.02;10.77;;;;;;;;;;5072657;28;20056;-68
2023/05/04 10:03:09;;;;;;;13.98;11.65;;;;;;;;;;5072832;28;20069;-68
2023/05/04 10:05:37;;;;;;;14.98;12.77;;;;;;;;;;5072654;28;20101;-68
2023/05/04 10:08:04;;;;;;;14.50;13.07;;;;;;;;;;5072923;28;20058;-68
2023/05/04 10:10:31;;;;;;;14.50;13.00;;;;;;;;;;5072799;28;20403;-68
2023/05/04 10:12:57;;;;;;;15.13;12.90;;;;;;;;;;5072822;28;20074;-68
2023/05/04 10:15:24;;;;;;;14.52;13.00;;;;;;;;;;5072728;28;20044;-68
2023/05/04 10:18:02;;;;;;;14.75;13.20;;;;;;;;;;5072523;28;20513;-68
2023/05/04 10:20:29;;;;;;;14.25;12.80;;;;;;;;;;5072687;28;20518;-68
2023/05/04 10:23:01;;;;;;;15.40;12.67;;;;;;;;;;5072463;28;20430;-68
2023/05/04 10:25:46;;;;;;;14.95;12.55;;;;;;;;;;5072626;28;20136;-68
2023/05/04 10:28:22;;;;;;;17.33;13.10;;;;;;;;;;5072542;28;20403;-68
2023/05/04 10:30:55;;;;;;;15.25;13.10;;;;;;;;;;5072407;28;20048;-68
2023/05/04 10:33:21;;;;;;;15.23;13.63;;;;;;;;;;5072271;28;20040;-67
2023/05/04 10:35:49;;;;;;;15.18;13.73;;;;;;;;;;5072136;28;20227;-68
2023/05/04 10:38:16;;;;;;;14.48;12.90;;;;;;;;;;5072367;28;20407;-68
2023/05/04 10:40:42;;;;;;;15.43;13.17;;;;;;;;;;5072077;28;20049;-68
2023/05/04 10:43:12;;;;;;;15.17;12.73;;;;;;;;;;5071946;28;20045;-68
2023/05/04 10:45:41;;;;;;;13.75;12.32;;;;;;;;;;5072317;28;20056;-68
2023/05/04 10:48:08;;;;;;;22.77;12.85;;;;;;;;;;5072145;28;20056;-68
2023/05/04 10:50:42;;;;;;;16.67;13.30;;;;;;;;;;5072065;28;20048;-68
2023/05/04 10:53:09;;;;;;;15.00;13.00;;;;;;;;;;5071838;28;20049;-67
2023/05/04 10:55:39;;;;;;;14.77;13.07;;;;;;;;;;5071837;28;20045;-67
2023/05/04 10:58:06;;;;;;;16.55;12.45;;;;;;;;;;5072019;28;20128;-67
2023/05/04 11:00:36;;;;;;;16.50;12.23;;;;;;;;;;5071720;28;20127;-67
2023/05/04 11:03:02;;;;;;;14.75;12.75;;;;;;;;;;5072086;28;20052;-67
2023/05/04 11:05:39;;;;;;;18.58;13.10;;;;;;;;;;5071659;28;20538;-67
2023/05/04 11:08:17;;;;;;;13.90;12.23;;;;;;;;;;5071995;28;20052;-67
2023/05/04 11:10:47;;;;;;;15.30;12.95;;;;;;;;;;5071905;28;20481;-67
2023/05/04 11:13:17;;;;;;;15.52;12.63;;;;;;;;;;5071691;28;20054;-67
2023/05/04 11:15:44;;;;;;;15.38;13.77;;;;;;;;;;5071853;28;20092;-67
2023/05/04 11:18:11;;;;;;;15.45;13.88;;;;;;;;;;5071597;28;20484;-67
2023/05/04 11:20:37;;;;;;;16.58;14.77;;;;;;;;;;5071562;28;20048;-67
2023/05/04 11:23:08;;;;;;;14.70;13.25;;;;;;;;;;5071558;28;20127;-67
2023/05/04 11:25:36;;;;;;;15.95;13.00;;;;;;;;;;5071467;28;20460;-67
2023/05/04 11:28:02;;;;;;;17.85;13.85;;;;;;;;;;5071431;28;20095;-67
2023/05/04 11:30:32;;;;;;;16.25;13.40;;;;;;;;;;5071467;28;20517;-67
2023/05/04 11:32:59;;;;;;;15.10;13.23;;;;;;;;;;5070032;28;20098;-67
2023/05/04 11:35:26;;;;;;;14.40;12.65;;;;;;;;;;5071705;28;20051;-67
2023/05/04 11:37:54;;;;;;;19.50;13.98;;;;;;;;;;5071524;28;20068;-67
2023/05/04 11:40:24;;;;;;;13.85;11.88;;;;;;;;;;5071617;28;20048;-67
2023/05/04 11:42:51;;;;;;;16.45;13.02;;;;;;;;;;5071442;28;20048;-67
2023/05/04 11:45:23;;;;;;;17.52;13.05;;;;;;;;;;5071319;28;20385;-67
2023/05/04 11:47:51;;;;;;;16.48;13.30;;;;;;;;;;5070393;28;20071;-67
2023/05/04 11:50:19;;;;;;;14.55;12.35;;;;;;;;;;5071263;28;20139;-67
2023/05/04 11:52:45;;;;;;;15.70;12.52;;;;;;;;;;5071209;28;20144;-67
2023/05/04 11:55:23;;;;;;;14.50;12.95;;;;;;;;;;5073120;28;20452;-67
2023/05/04 11:57:59;;;;;;;13.77;12.32;;;;;;;;;;5075295;28;20068;-67
2023/05/04 12:00:38;;;;;;;13.98;12.50;;;;;;;;;;5075042;28;20059;-67
2023/05/04 12:03:05;;;;;;;14.02;12.63;;;;;;;;;;5075132;28;20535;-67
2023/05/04 12:05:32;;;;;;;;;;;;;;;;;;5075433;28;20074;-67
2023/05/04 12:07:58;;;;;;;14.40;12.93;;;;;;;;;;5075227;28;19921;-67
2023/05/04 12:10:25;;;;;;;14.80;12.37;;;;;;;;;;5075184;28;20284;-68
2023/05/04 12:12:52;;;;;;;15.13;11.48;;;;;;;;;;5075027;28;20040;-67
2023/05/04 12:15:33;;;;;;;15.43;12.57;;;;;;;;;;5075109;28;20070;-67
2023/05/04 12:17:59;;;;;;;15.10;12.60;;;;;;;;;;5074920;28;20056;-67
2023/05/04 12:20:29;;;;;;;15.88;12.77;;;;;;;;;;5074828;28;20403;-67
2023/05/04 12:22:56;;;;;;;14.90;12.93;;;;;;;;;;5074849;28;20099;-67
2023/05/04 12:25:23;;;;;;;15.90;12.68;;;;;;;;;;5075061;28;20059;-67
2023/05/04 12:27:50;;;;;;;14.20;12.48;;;;;;;;;;5074865;28;20080;-67
2023/05/04 12:30:16;;;;;;;13.68;12.13;;;;;;;;;;5074617;28;20204;-68
2023/05/04 12:32:43;;;;;;;13.73;11.68;;;;;;;;;;5074783;28;20044;-68
2023/05/04 12:35:09;;;;;;;20.67;18.45;;;;;;;;;;5074514;28;20054;-68
2023/05/04 12:37:36;;;;;;;15.90;14.40;;;;;;;;;;5074441;28;20072;-68
2023/05/04 12:40:03;;;;;;;;;;;;;;;;;;5073883;28;20129;-68
2023/05/04 12:42:36;;;;;;;12.68;10.80;;;;;;;;;;5074332;28;20268;-68
2023/05/04 12:45:03;;;;;;;12.05;10.88;;;;;;;;;;5074585;28;20044;-68
2023/05/04 12:47:29;;;;;;;12.98;11.63;;;;;;;;;;5074298;28;20056;-68
2023/05/04 12:49:56;;;;;;;11.85;9.95;;;;;;;;;;5074283;28;20110;-68
2023/05/04 12:52:22;;;;;;;11.93;10.73;;;;;;;;;;5074069;28;20045;-68
2023/05/04 12:54:49;;;;;;;13.50;11.60;;;;;;;;;;5074488;28;20479;-68
2023/05/04 12:57:15;;;;;;;12.15;10.85;;;;;;;;;;5073966;28;20048;-67
2023/05/04 12:59:42;;;;;;;12.68;10.38;;;;;;;;;;5072923;28;20080;-67
2023/05/04 13:02:09;;;;;;;12.32;10.40;;;;;;;;;;5073965;28;20127;-67
2023/05/04 13:04:35;;;;;;;12.68;9.85;;;;;;;;;;5074088;28;20059;-67
2023/05/04 13:07:02;;;;;;;12.03;10.73;;;;;;;;;;5072627;28;20062;-67
2023/05/04 13:09:28;;;;;;;14.20;11.33;;;;;;;;;;5074203;28;20127;-68
2023/05/04 13:11:55;;;;;;;11.47;10.47;;;;;;;;;;5073694;28;20492;-68
2023/05/04 13:14:21;;;;;;;10.55;9.55;;;;;;;;;;5073922;28;20502;-67
2023/05/04 13:16:47;;;;;;;10.03;9.07;;;;;;;;;;5073745;28;20480;-68
2023/05/04 13:19:16;;;;;;;10.40;9.35;;;;;;;;;;5073554;28;20091;-68
2023/05/04 13:21:43;;;;;;;11.63;9.87;;;;;;;;;;5073668;28;20052;-68
2023/05/04 13:24:10;;;;;;;10.10;9.20;;;;;;;;;;5073760;28;20051;-68
2023/05/04 13:26:36;;;;;;;;;;;;;;;;;;5072947;28;20117;-68
2023/05/04 13:29:03;;;;;;;9.40;8.48;;;;;;;;;;5073361;28;19924;-68
2023/05/04 13:31:30;;;;;;;9.45;8.50;;;;;;;;;;5073583;28;20057;-68
2023/05/04 13:33:56;;;;;;;9.60;8.50;;;;;;;;;;5073626;28;20053;-67
2023/05/04 13:36:23;;;;;;;10.90;8.70;;;;;;;;;;5073742;28;20155;-67
2023/05/04 13:38:50;;;;;;;10.05;8.88;;;;;;;;;;5073618;28;20053;-67
2023/05/04 13:41:16;;;;;;;10.07;8.77;;;;;;;;;;5073207;28;20560;-67
2023/05/04 13:43:43;;;;;;;8.75;7.82;;;;;;;;;;5073555;28;20114;-67
2023/05/04 13:46:09;;;;;;;9.13;7.18;;;;;;;;;;5073269;28;20139;-67
2023/05/04 13:48:36;;;;;;;8.30;7.35;;;;;;;;;;5073368;28;20122;-67
2023/05/04 13:51:03;;;;;;;9.77;8.38;;;;;;;;;;5073460;28;20052;-67
2023/05/04 13:53:29;;;;;;;8.73;7.80;;;;;;;;;;5073162;28;20056;-67
2023/05/04 13:55:55;;;;;;;8.65;7.82;;;;;;;;;;5073094;28;20067;-67
2023/05/04 13:58:22;;;;;;;12.07;8.27;;;;;;;;;;5072940;28;20464;-67
2023/05/04 14:00:48;;;;;;;9.38;8.18;;;;;;;;;;5072743;28;20064;-67
2023/05/04 14:03:15;;;;;;;11.30;7.60;;;;;;;;;;5073049;28;20052;-67
2023/05/04 14:05:41;;;;;;;10.30;8.25;;;;;;;;;;5073181;28;20083;-67
2023/05/04 14:08:08;;;;;;;9.93;8.55;;;;;;;;;;5072990;28;20048;-67
2023/05/04 14:10:34;;;;;;;12.17;8.70;;;;;;;;;;5072644;28;20055;-67
2023/05/04 14:13:02;;;;;;;12.00;8.82;;;;;;;;;;5072587;28;20301;-67
2023/05/04 14:15:29;;;;;;;11.70;9.15;;;;;;;;;;5072676;28;20067;-67
2023/05/04 14:17:55;;;;;;;10.60;9.20;;;;;;;;;;5072552;28;20464;-67
2023/05/04 14:20:22;;;;;;;11.37;9.90;;;;;;;;;;5072701;28;20049;-67
2023/05/04 14:22:48;;;;;;;12.40;8.88;;;;;;;;;;5072661;28;20155;-67